Observations for FAIRFORD RAF, United Kingdom (EGVA)

EGVA 201656Z AUTO 27018KT 9999 SCT035 BKN045 20/13 A3009 RMK AO2 DZE1557 SLP191 P0000 T01990131 $   
EGVA 201556Z AUTO 26015G19KT 9999 -DZ SCT028 BKN033 21/16 A3010 RMK AO2 DZE1456RAB1456E06DZB06E17RAB38E51DZB51 SLP194 P0000 T02050155 $ 
EGVA 201538Z AUTO 23014KT 8000 -RA BKN028 BKN033 20/16 A3009 RMK AO2 DZE1456RAB1456E06DZB06E17RAB38 SLP191 $
EGVA 201516Z AUTO 25015G22KT 9999 -DZ SCT015 BKN022 OVC027 19/16 A3010 RMK AO2 DZE1456RAB1456E06DZB06 CIG 016V022 BKN V OVC SLP194 $
EGVA 201517Z AUTO 26016G22KT 9999 SCT015 OVC027 19/16 A3010 RMK AO2 DZE1456RAB1456E06DZB06E17 CIG 016V027 SLP194 $
EGVA 201548Z AUTO 24014KT 9999 -RA SCT028 SCT033 20/15 A3009 RMK AO2 DZE1456RAB1456E06DZB06E17RAB38 SLP191 $
EGVA 201557Z AUTO 26014G19KT 9999 SCT028 BKN033 21/15 A3010 RMK AO2 DZE57 SLP194 $
EGVA 201456Z AUTO 26016KT 9999 -DZ BKN016 OVC023 19/15 A3010 RMK AO2 DZB47 BKN V OVC SLP194 P0000 60000 T01850154 55000 $   
EGVA 201447Z AUTO 27019G23KT 9999 -DZ OVC016 19/15 A3010 RMK AO2 DZB47 SLP195 $
EGVA 201356Z AUTO 27013KT 9999 OVC015 19/16 A3010 RMK AO2 SLP194 T01940156 $
EGVA 201326Z AUTO 25014KT 9999 BKN018 OVC038 20/16 A3010 RMK AO2 CIG 016V021 CIG 016 RWY09 SLP194 $
EGVA 201316Z AUTO 27019G22KT 9999 SCT016 BKN021 BKN039 OVC050 20/16 A3010 RMK AO2 CIG 016V021 BKN021 V OVC SLP194 $
EGVA 201256Z AUTO 25013KT 9999 BKN017 OVC023 19/16 A3010 RMK AO2 CIG 016 RWY09 SLP194 T01940158 $   
EGVA 201236Z AUTO 26013KT 9999 OVC020 20/16 A3010 RMK AO2 SLP194 $
EGVA 201251Z AUTO 27015KT 9999 BKN017 OVC023 19/16 A3010 RMK AO2 CIG 016 RWY09 SLP194 $
EGVA 201156Z AUTO 25011KT 9999 OVC019 19/15 A3010 RMK AO2 SLP194 60000 T01930154 10205 20165 55002 $
EGVA 201151Z AUTO 25012KT 9999 OVC019 19/15 A3011 RMK AO2 SLP198 $
EGVA 201056Z AUTO 25013G24KT 9999 BKN020 OVC027 20/16 A3011 RMK AO2 SLP197 T01970157 $  
EGVA 201011Z AUTO 25014KT 9999 BKN021 OVC027 20/16 A3010 RMK AO2 CIG 019V026 SLP194 $
EGVA 200956Z AUTO 26014KT 9999 BKN016 OVC024 20/16 A3011 RMK AO2 RAB42E49 SLP197 P0000 T01990159 $  
EGVA 200942Z AUTO 24011KT 9999 -RA BKN017 OVC024 20/16 A3011 RMK AO2 RAB42 SLP197 $
EGVA 200949Z AUTO 26014KT 9999 BKN017 OVC022 20/16 A3011 RMK AO2 RAB42E49 SLP197 $
EGVA 200856Z AUTO 23013KT 9999 OVC017 19/15 A3011 RMK AO2 RAE01 OVC V BKN SLP198 P0000 60000 T01900153 57003 $  
EGVA 200841Z AUTO 23010KT 9999 OVC019 19/15 A3011 RMK AO2 RAE01 CIG 019V023 CIG018 RWY09 SLP197 $
EGVA 200806Z AUTO 23010KT 9999 SCT011 BKN025 18/15 A3011 RMK AO2 RAE01 CIG 011V025 BKN V OVC SLP198 $
EGVA 200801Z AUTO 22011KT 9999 BKN011 BKN019 OVC025 18/15 A3011 RMK AO2 RAE01 BKN011 V OVC SLP198 $
EGVA 200756Z AUTO 21010KT 9000 -RA BKN011 BKN019 OVC025 18/15 A3011 RMK AO2 RAB11E20DZB20E21DZB39E50RAB50 BKN011 V OVC SLP198 P0000 T01790151 $ 
EGVA 200739Z AUTO 22010KT 9999 -DZ OVC009 17/15 A3011 RMK AO2 RAB11E20DZB20E21DZB39 SLP198 $
EGVA 200744Z AUTO 22011KT 9999 -DZ OVC010 18/15 A3011 RMK AO2 RAB11E20DZB20E21DZB39 SLP197 $
EGVA 200711Z AUTO 23010KT 9999 -RA OVC008 17/15 A3011 RMK AO2 RAB11 SLP198 $
EGVA 200721Z AUTO 23010KT 9999 OVC009 17/15 A3011 RMK AO2 RAB11E20DZB20E21 SLP198 $
EGVA 200656Z AUTO 23012KT 9999 OVC008 17/15 A3011 RMK AO2 SLP198 T01670147 $
EGVA 200626Z AUTO 23013KT 9999 OVC009 17/15 A3011 RMK AO2 CIG 009V011 SLP197 $
EGVA 200556Z AUTO 22010KT 9999 BKN014 OVC019 17/15 A3012 RMK AO2 SLP201 60000 T01660148 10171 20158 55003 $ 
EGVA 200526Z AUTO 23008KT 9999 OVC016 17/15 A3012 RMK AO2 SLP201 $
EGVA 200516Z AUTO 23008KT 9999 OVC014 17/15 A3012 RMK AO2 SLP201 $
EGVA 200456Z AUTO 23008KT 9999 FEW008 OVC016 17/15 A3012 RMK AO2 SLP201 T01660153 $ 
EGVA 200436Z AUTO 25007KT 9999 BKN008 OVC016 17/15 A3012 RMK AO2 CIG 008V018 SLP201 $
EGVA 200401Z AUTO 24005KT 9999 OVC018 16/15 A3012 RMK AO2 SLP201 $
EGVA 200446Z AUTO 23007KT 9999 SCT008 OVC016 17/15 A3012 RMK AO2 CIG 008V016 SLP201 $
EGVA 200356Z AUTO 23005KT 9999 OVC020 16/15 A3012 RMK AO2 DZE00 SLP201 P0000 T01630150 $
EGVA 200315Z AUTO 24003KT 9999 OVC020 16/15 A3012 RMK AO2 DZE00 SLP201 $
EGVA 200300Z AUTO 24005KT 9999 OVC019 16/15 A3013 RMK AO2 DZE00 SLP204 $
EGVA 200256Z AUTO 24006KT 9999 -DZ OVC019 16/15 A3013 RMK AO2 DZB46 SLP204 P0000 60000 T01600145 57013 $
EGVA 200246Z AUTO 24005KT 9999 -DZ OVC022 16/14 A3013 RMK AO2 DZB46 CIG 021 RWY09 SLP204 $
EGVA 200056Z AUTO 23006KT 9999 FEW013 OVC023 17/15 A3015 RMK AO2 SLP211 T01690145 $ 
EGVA 192356Z AUTO 25009KT 9999 BKN013 OVC025 17/15 A3016 RMK AO2 CIG 013V025 BKN V SCT SLP214 T01710147 10207 20170 402310149 57008 $   
EGVA 192353Z AUTO 25008KT 9999 BKN013 OVC025 17/15 A3017 RMK AO2 CIG 013V025 BKN V SCT SLP218 $
EGVA 192256Z AUTO 24007KT 9999 SCT013 OVC030 17/15 A3017 RMK AO2 SLP218 T01720148 $ 
EGVA 192251Z AUTO 25008KT 9999 SCT013 OVC030 17/15 A3017 RMK AO2 SLP218 $
EGVA 192156Z AUTO 25011KT 9999 OVC014 18/15 A3018 RMK AO2 CIG 013 RWY09 SLP221 T01760150 $  
EGVA 192136Z AUTO 26013KT 9999 OVC014 18/15 A3019 RMK AO2 SLP225 $
EGVA 192101Z AUTO 25007KT 9999 BKN016 OVC031 18/15 A3019 RMK AO2 CIG 016V031 BKN V FEW SLP225 $
EGVA 192056Z AUTO 26007KT 9999 SCT017 OVC031 18/15 A3019 RMK AO2 SLP225 T01760150 53004 $   
EGVA 192041Z AUTO 27012KT 9999 SCT015 OVC029 18/15 A3019 RMK AO2 CIG 016V029 SLP225 $
EGVA 192006Z AUTO 28010KT 9999 BKN018 BKN027 OVC041 19/16 A3018 RMK AO2 SLP221 $
EGVA 192001Z AUTO 26009KT 9999 BKN020 BKN028 OVC041 19/16 A3018 RMK AO2 CIG 017V023 CIG 015 RWY09 SLP221 $
EGVA 191956Z AUTO 26010KT 9999 BKN017 BKN023 OVC041 19/16 A3018 RMK AO2 CIG 017V041 BKN017 V SCT CIG 015 RWY09 SLP221 T01880158 $   
EGVA 191946Z AUTO 26012KT 9999 SCT019 OVC041 19/16 A3017 RMK AO2 SLP218 $
EGVA 191856Z AUTO 27013KT 9999 OVC041 20/15 A3018 RMK AO2 SLP221 T01980154 $
EGVA 191756Z AUTO 25014G19KT 9999 BKN022 OVC041 21/16 A3018 RMK AO2 CIG 022V039 BKN V SCT SLP221 T02080160 10231 20208 55002 $  
EGVA 191656Z AUTO 28013KT 9999 SCT025 OVC036 22/16 A3018 RMK AO2 SLP221 T02170162 $